Time;durP1;ratioP1;P1;durP2;ratioP2;P2;SDS_P1;SDS_P2;PMS_P1;PMS_P2;Temp;Humidity;BMP_temperature;BMP_pressure;BME280_temperature;BME280_humidity;BME280_pressure;Samples;Min_cycle;Max_cycle;Signal;HPM_P1;HPM_P2
2021/05/06 00:14:32;;;;;;;1999.90;999.90;;;;;;;6.30;75.87;97521.88;5044608;28;19972;-64
2021/05/06 00:32:37;;;;;;;1999.90;999.90;;;;;;;6.80;73.95;97537.22;5045138;28;20045;-64
2021/05/06 00:35:05;;;;;;;1999.90;999.90;;;;;;;6.91;73.27;97537.72;5039409;28;20068;-64
2021/05/06 00:37:40;;;;;;;1999.90;999.90;;;;;;;6.74;73.68;97540.41;5048564;28;20041;-64
2021/05/06 00:40:09;;;;;;;1999.90;999.90;;;;;;;6.52;74.58;97544.91;5046639;28;20110;-64
2021/05/06 00:46:10;;;;;;;1999.90;999.90;;;;;;;6.79;73.88;97543.00;5001961;28;20063;-64
2021/05/06 00:54:23;;;;;;;1999.90;999.90;;;;;;;7.34;71.17;97536.09;5039624;28;20048;-65
2021/05/06 01:04:44;;;;;;;1999.90;999.90;;;;;;;6.96;72.63;97539.50;5037718;28;20497;-65
2021/05/06 01:12:36;;;;;;;1999.90;999.90;;;;;;;6.96;72.35;97554.03;5032704;28;20060;-65
2021/05/06 01:15:03;;;;;;;1999.90;999.90;;;;;;;7.09;71.85;97543.22;5048450;28;20057;-65
2021/05/06 01:17:29;;;;;;;1999.90;999.90;;;;;;;7.00;72.07;97552.28;5048458;28;20045;-65
2021/05/06 01:19:56;;;;;;;1999.90;999.90;;;;;;;6.67;73.23;97560.94;5035493;28;20050;-65
2021/05/06 01:22:22;;;;;;;1999.90;999.90;;;;;;;6.82;72.46;97550.63;5047311;28;20117;-65
2021/05/06 01:24:54;;;;;;;1999.90;999.90;;;;;;;6.80;72.69;97561.13;5039249;28;20048;-65
2021/05/06 01:30:17;;;;;;;1999.90;999.90;;;;;;;6.91;72.78;97554.19;5043254;28;20440;-64
2021/05/06 01:35:21;;;;;;;1999.90;999.90;;;;;;;6.57;73.16;97572.22;5042192;28;20049;-65
2021/05/06 01:40:47;;;;;;;1999.90;999.90;;;;;;;6.57;73.40;97569.47;5047204;28;20396;-64
2021/05/06 01:48:33;;;;;;;1999.90;999.90;;;;;;;6.38;73.98;97574.41;5045399;28;20331;-64
2021/05/06 01:59:47;;;;;;;1999.90;999.90;;;;;;;5.95;76.49;97568.34;5048692;28;20049;-65
2021/05/06 02:02:13;;;;;;;1999.90;999.90;;;;;;;6.17;74.94;97573.00;5030921;28;20045;-64
2021/05/06 02:04:39;;;;;;;1999.90;999.90;;;;;;;6.16;75.20;97559.59;5048244;28;20132;-65
2021/05/06 02:07:05;;;;;;;1999.90;999.90;;;;;;;6.15;75.43;97572.53;5038714;28;20079;-65
2021/05/06 02:09:32;;;;;;;1999.90;999.90;;;;;;;6.38;75.24;97563.44;5048683;28;20084;-65
2021/05/06 02:11:58;;;;;;;1999.90;999.90;;;;;;;6.50;74.31;97563.63;5046887;28;20052;-65
2021/05/06 02:14:24;;;;;;;1999.90;999.90;;;;;;;6.47;73.91;97558.78;5041138;28;20122;-65
2021/05/06 02:16:51;;;;;;;1999.90;999.90;;;;;;;6.41;74.36;97562.78;5049008;28;20053;-65
2021/05/06 02:19:26;;;;;;;1999.90;999.90;;;;;;;6.36;74.10;97552.75;5045453;28;20056;-64
2021/05/06 02:21:52;;;;;;;1999.90;999.90;;;;;;;6.17;75.13;97558.50;5041266;28;20040;-65
2021/05/06 02:24:19;;;;;;;1999.90;999.90;;;;;;;6.29;74.56;97555.94;5055224;28;20491;-65
2021/05/06 02:26:45;;;;;;;1999.90;999.90;;;;;;;5.82;76.01;97555.53;5047046;28;20484;-65
2021/05/06 02:29:11;;;;;;;1999.90;999.90;;;;;;;5.60;77.01;97557.16;5052644;28;20496;-65
2021/05/06 02:31:37;;;;;;;1999.90;999.90;;;;;;;5.43;78.20;97557.88;5044870;28;20424;-64
2021/05/06 02:34:03;;;;;;;1999.90;999.90;;;;;;;5.28;78.52;97559.03;5048246;28;20049;-64
2021/05/06 02:36:30;;;;;;;1999.90;999.90;;;;;;;5.20;79.14;97568.00;5049279;28;20558;-64
2021/05/06 02:38:59;;;;;;;1999.90;999.90;;;;;;;5.00;80.40;97561.06;5046384;28;20106;-64
2021/05/06 02:41:25;;;;;;;1999.90;999.90;;;;;;;5.17;79.59;97570.56;5044375;28;20068;-64
2021/05/06 02:43:51;;;;;;;1999.90;999.90;;;;;;;5.31;78.52;97574.03;5045051;28;20057;-64
2021/05/06 02:46:17;;;;;;;1999.90;999.90;;;;;;;5.08;79.50;97574.00;5044308;28;20103;-64
2021/05/06 02:48:43;;;;;;;1999.90;999.90;;;;;;;5.25;78.88;97583.50;5034329;28;20049;-64
2021/05/06 02:51:10;;;;;;;1999.90;999.90;;;;;;;5.17;79.28;97587.81;5046630;28;20052;-64
2021/05/06 02:53:38;;;;;;;1999.90;999.90;;;;;;;5.19;78.98;97585.56;5043875;28;20053;-65
2021/05/06 03:03:53;;;;;;;1999.90;999.90;;;;;;;5.44;79.13;97610.78;5030663;28;20053;-64
2021/05/06 03:06:25;;;;;;;1999.90;999.90;;;;;;;5.11;79.90;97611.75;5039128;28;20053;-65
2021/05/06 03:08:57;;;;;;;1999.90;999.90;;;;;;;5.29;79.20;97612.72;5038704;28;20045;-64
2021/05/06 03:11:34;;;;;;;1999.90;999.90;;;;;;;5.32;79.02;97614.06;5030919;28;20049;-64
2021/05/06 03:25:01;;;;;;;1999.90;999.90;;;;;;;5.21;79.29;97620.88;5044628;28;20049;-64
2021/05/06 03:27:31;;;;;;;1999.90;999.90;;;;;;;5.21;79.74;97629.09;5037827;28;20053;-64
2021/05/06 03:32:57;;;;;;;1999.90;999.90;;;;;;;5.38;79.26;97631.22;5047504;28;20095;-65
2021/05/06 03:46:29;;;;;;;1999.90;999.90;;;;;;;5.93;76.99;97655.69;5043050;28;20060;-65
2021/05/06 04:27:22;;;;;;;1999.90;999.90;;;;;;;7.05;72.07;97714.28;5020434;28;20084;-64
2021/05/06 04:37:45;;;;;;;1999.90;999.90;;;;;;;7.63;70.63;97721.72;5037181;28;20400;-64
2021/05/06 04:53:29;;;;;;;1999.90;999.90;;;;;;;7.17;71.97;97732.94;5041844;28;20144;-64
2021/05/06 05:06:08;;;;;;;1999.90;999.90;;;;;;;7.38;71.23;97729.59;5038206;28;20054;-64
2021/05/06 05:08:41;;;;;;;1999.90;999.90;;;;;;;7.05;72.85;97730.00;5034993;28;20056;-64
2021/05/06 05:11:57;;;;;;;1999.90;999.90;;;;;;;7.12;72.80;97732.28;5028646;28;20145;-64
2021/05/06 05:26:49;;;;;;;1999.90;999.90;;;;;;;7.66;71.67;97726.59;5039780;28;20056;-63
2021/05/06 05:29:15;;;;;;;1999.90;999.90;;;;;;;7.80;70.68;97732.78;5028383;28;20565;-64
2021/05/06 05:31:42;;;;;;;1999.90;999.90;;;;;;;7.90;70.56;97732.47;5043701;28;20045;-64
2021/05/06 05:36:55;;;;;;;1999.90;999.90;;;;;;;7.87;68.98;97735.03;5039939;28;20057;-63
2021/05/06 05:55:14;;;;;;;1999.90;999.90;;;;;;;7.75;70.07;97739.22;5043488;28;20075;-63
2021/05/06 05:57:43;;;;;;;1999.90;999.90;;;;;;;7.16;70.92;97730.50;5036676;28;20049;-63
2021/05/06 06:00:09;;;;;;;1999.90;999.90;;;;;;;7.41;70.09;97720.72;5028166;28;20054;-65
2021/05/06 06:02:38;;;;;;;1999.90;999.90;;;;;;;7.17;71.10;97730.19;5037405;28;20099;-64
2021/05/06 06:05:06;;;;;;;1999.90;999.90;;;;;;;7.79;70.56;97720.13;5032658;28;20132;-66
2021/05/06 06:07:33;;;;;;;1999.90;999.90;;;;;;;7.86;69.37;97720.47;5035701;28;20092;-65
2021/05/06 06:10:00;;;;;;;1999.90;999.90;;;;;;;7.77;70.33;97714.16;5042099;28;20055;-65
2021/05/06 06:12:26;;;;;;;1999.90;999.90;;;;;;;7.63;68.86;97714.28;5038659;28;20574;-64
2021/05/06 06:14:56;;;;;;;1999.90;999.90;;;;;;;7.29;69.93;97718.56;5044739;28;20091;-64
2021/05/06 06:17:22;;;;;;;1999.90;999.90;;;;;;;7.32;70.53;97728.94;5040911;28;20103;-65
2021/05/06 06:19:51;;;;;;;1999.90;999.90;;;;;;;7.74;69.64;97723.03;5035016;28;20439;-64
2021/05/06 06:22:19;;;;;;;1999.90;999.90;;;;;;;7.71;70.06;97723.69;5042829;28;20041;-65
2021/05/06 06:24:46;;;;;;;1999.90;999.90;;;;;;;7.95;69.33;97717.72;5042947;28;20053;-64
2021/05/06 06:27:13;;;;;;;1999.90;999.90;;;;;;;7.53;70.53;97718.16;5012134;28;20053;-65
2021/05/06 06:29:41;;;;;;;1999.90;999.90;;;;;;;7.83;70.18;97717.53;5043131;28;20504;-65
2021/05/06 06:32:11;;;;;;;1999.90;999.90;;;;;;;8.11;68.72;97729.03;5038655;28;20071;-65
2021/05/06 06:34:37;;;;;;;1999.90;999.90;;;;;;;8.50;68.25;97721.75;5034522;28;20311;-65
2021/05/06 06:37:03;;;;;;;1999.90;999.90;;;;;;;8.58;67.63;97725.63;5039268;28;20459;-64
2021/05/06 06:39:30;;;;;;;1999.90;999.90;;;;;;;8.03;67.95;97735.38;5031295;28;20080;-64
2021/05/06 06:41:56;;;;;;;1999.90;999.90;;;;;;;8.28;66.50;97728.22;5036783;28;20057;-64
2021/05/06 06:44:27;;;;;;;1999.90;999.90;;;;;;;8.07;67.38;97737.16;5038230;28;20126;-64
2021/05/06 06:47:04;;;;;;;;;;;;;;;7.78;68.51;97728.72;5040839;28;20412;-65
2021/05/06 06:49:32;;;;;;;1999.90;999.90;;;;;;;8.16;67.61;97723.38;5042065;28;20292;-64
2021/05/06 06:52:00;;;;;;;1999.90;999.90;;;;;;;8.61;67.56;97725.75;5038190;28;20439;-64
2021/05/06 06:54:27;;;;;;;1999.90;999.90;;;;;;;8.70;66.55;97720.22;5035411;28;20459;-64
2021/05/06 06:57:00;;;;;;;1999.90;999.90;;;;;;;8.89;67.60;97716.28;5043581;28;20536;-64
2021/05/06 06:59:26;;;;;;;1999.90;999.90;;;;;;;9.43;66.45;97718.47;5046851;28;20056;-64
2021/05/06 07:01:53;;;;;;;1999.90;999.90;;;;;;;9.40;66.17;97714.41;5039131;28;20055;-65
2021/05/06 07:04:19;;;;;;;1999.90;999.90;;;;;;;9.43;64.70;97718.47;5043836;28;20049;-64
2021/05/06 07:06:45;;;;;;;1999.90;999.90;;;;;;;9.44;64.43;97717.34;5036706;28;20162;-65
2021/05/06 07:09:11;;;;;;;1999.90;999.90;;;;;;;9.30;65.06;97725.84;5037096;28;20124;-65
2021/05/06 07:11:38;;;;;;;1999.90;999.90;;;;;;;9.08;65.80;97724.97;5041740;28;20122;-65
2021/05/06 07:14:05;;;;;;;1999.90;999.90;;;;;;;9.22;65.25;97732.22;5035725;28;20072;-65
2021/05/06 07:16:32;;;;;;;1999.90;999.90;;;;;;;9.34;64.63;97732.31;5036442;28;20057;-64
2021/05/06 07:18:59;;;;;;;1999.90;999.90;;;;;;;9.40;64.53;97730.19;5038603;28;20420;-65
2021/05/06 07:21:26;;;;;;;1999.90;999.90;;;;;;;9.46;64.19;97735.16;5044684;28;20060;-65
2021/05/06 07:23:54;;;;;;;1999.90;999.90;;;;;;;9.42;64.36;97723.16;5045850;28;20055;-65
2021/05/06 07:26:25;;;;;;;1999.90;999.90;;;;;;;9.65;64.28;97720.13;5036358;28;20385;-65
2021/05/06 07:28:53;;;;;;;1999.90;999.90;;;;;;;10.42;63.02;97711.56;5035298;28;20045;-65
2021/05/06 07:31:21;;;;;;;1999.90;999.90;;;;;;;10.85;60.85;97721.38;5044630;28;20048;-65
2021/05/06 07:33:50;;;;;;;1999.90;999.90;;;;;;;11.88;59.16;97727.81;5048953;28;20068;-65
2021/05/06 07:36:20;;;;;;;1999.90;999.90;;;;;;;11.42;59.63;97727.19;5046058;28;20053;-65
2021/05/06 07:38:50;;;;;;;1999.90;999.90;;;;;;;11.84;59.08;97726.88;5042782;28;20053;-65
2021/05/06 07:41:20;;;;;;;1999.90;999.90;;;;;;;11.67;59.90;97724.38;5039911;28;20059;-65
2021/05/06 07:43:49;;;;;;;1999.90;999.90;;;;;;;11.59;57.65;97726.13;5039654;28;20068;-65
2021/05/06 07:46:19;;;;;;;1999.90;999.90;;;;;;;11.23;59.85;97725.78;5044182;28;20079;-65
2021/05/06 07:48:51;;;;;;;1999.90;999.90;;;;;;;10.90;61.01;97718.38;5047578;28;21043;-64
2021/05/06 07:51:22;;;;;;;1999.90;999.90;;;;;;;11.24;60.45;97724.63;5042559;28;20088;-65
2021/05/06 07:53:53;;;;;;;1999.90;999.90;;;;;;;11.21;58.91;97711.50;5041932;28;20049;-65
2021/05/06 07:56:23;;;;;;;1999.90;999.90;;;;;;;12.09;59.55;97704.72;5046019;28;20331;-65
2021/05/06 07:58:50;;;;;;;1999.90;999.90;;;;;;;12.47;58.23;97692.28;5045569;28;20070;-65
2021/05/06 08:01:16;;;;;;;1999.90;999.90;;;;;;;12.64;56.37;97691.97;5038166;28;20049;-65
2021/05/06 08:03:43;;;;;;;1999.90;999.90;;;;;;;12.69;58.48;97688.94;5037069;28;20057;-65
2021/05/06 08:06:09;;;;;;;1999.90;999.90;;;;;;;13.00;56.51;97692.91;5038166;28;20103;-65
2021/05/06 08:08:35;;;;;;;1999.90;999.90;;;;;;;12.56;57.38;97690.16;5038810;28;20687;-64
2021/05/06 08:11:02;;;;;;;1999.90;999.90;;;;;;;12.56;59.68;97676.28;5035748;28;20045;-65
2021/05/06 08:13:28;;;;;;;1999.90;999.90;;;;;;;13.23;56.50;97677.59;5044501;28;20057;-65
2021/05/06 08:15:56;;;;;;;1999.90;999.90;;;;;;;13.20;55.42;97673.56;5046336;28;20059;-64
2021/05/06 08:18:22;;;;;;;1999.90;999.90;;;;;;;12.49;58.37;97676.94;5039805;28;20045;-65
2021/05/06 08:20:49;;;;;;;1999.90;999.90;;;;;;;13.47;56.11;97682.97;5042175;28;20339;-65
2021/05/06 08:23:20;;;;;;;1999.90;999.90;;;;;;;14.28;54.74;97675.97;5044356;28;20053;-65
2021/05/06 08:25:46;;;;;;;1999.90;999.90;;;;;;;13.93;53.49;97676.81;5031760;28;20053;-65
2021/05/06 08:28:12;;;;;;;1999.90;999.90;;;;;;;12.81;55.51;97687.25;5042237;28;20057;-64
2021/05/06 08:30:39;;;;;;;1999.90;999.90;;;;;;;12.28;57.10;97682.69;5036347;28;20072;-65
2021/05/06 08:33:05;;;;;;;1999.90;999.90;;;;;;;12.13;56.77;97683.44;5051521;28;20063;-65
2021/05/06 08:35:32;;;;;;;1999.90;999.90;;;;;;;11.41;57.71;97687.59;5040245;28;20491;-64
2021/05/06 08:38:01;;;;;;;1999.90;999.90;;;;;;;11.01;59.60;97693.03;5043170;28;20100;-64
2021/05/06 08:40:28;;;;;;;1999.90;999.90;;;;;;;10.86;60.13;97700.84;5045031;28;20056;-64
2021/05/06 08:42:55;;;;;;;1999.90;999.90;;;;;;;10.29;61.24;97690.53;5037794;28;20380;-65
2021/05/06 08:45:31;;;;;;;1999.90;999.90;;;;;;;10.38;61.80;97694.06;5031865;28;20492;-64
2021/05/06 08:47:57;;;;;;;1999.90;999.90;;;;;;;10.75;59.77;97696.91;5041899;28;20132;-65
2021/05/06 08:50:25;;;;;;;1999.90;999.90;;;;;;;11.22;58.90;97693.72;5034704;28;20057;-64
2021/05/06 08:52:52;;;;;;;1999.90;999.90;;;;;;;12.77;56.46;97678.84;5044124;28;20045;-65
2021/05/06 08:55:18;;;;;;;1999.90;999.90;;;;;;;12.13;55.09;97688.97;5043280;28;20052;-65
2021/05/06 08:57:45;;;;;;;1999.90;999.90;;;;;;;11.65;55.87;97699.00;5032693;28;20098;-65
2021/05/06 09:00:11;;;;;;;1999.90;999.90;;;;;;;11.19;56.17;97699.94;5041774;28;20519;-64
2021/05/06 09:02:45;;;;;;;1999.90;999.90;;;;;;;11.20;57.81;97698.00;5037360;28;20053;-64
2021/05/06 09:05:12;;;;;;;1999.90;999.90;;;;;;;11.27;56.09;97704.56;5031117;28;20096;-65
2021/05/06 09:07:45;;;;;;;1999.90;999.90;;;;;;;10.89;57.36;97700.16;5034582;28;20064;-65
2021/05/06 09:10:34;;;;;;;1999.90;999.90;;;;;;;11.37;57.37;97699.72;5038381;28;20056;-65
2021/05/06 09:13:02;;;;;;;1999.90;999.90;;;;;;;11.02;56.12;97697.41;5045417;28;20045;-65
2021/05/06 09:15:29;;;;;;;1999.90;999.90;;;;;;;11.15;56.91;97701.81;5035138;28;20061;-65
2021/05/06 09:17:55;;;;;;;1999.90;999.90;;;;;;;11.61;55.86;97696.09;5036425;28;20053;-65
2021/05/06 09:20:26;;;;;;;1999.90;999.90;;;;;;;11.34;57.13;97692.91;5034208;28;20060;-65
2021/05/06 09:22:57;;;;;;;1999.90;999.90;;;;;;;11.01;55.22;97696.59;5038927;28;20051;-65
2021/05/06 09:25:38;;;;;;;1999.90;999.90;;;;;;;10.99;56.79;97687.03;5040199;28;20052;-65
2021/05/06 09:28:13;;;;;;;1999.90;999.90;;;;;;;10.80;57.75;97696.69;5030490;28;20503;-64
2021/05/06 09:30:54;;;;;;;1999.90;999.90;;;;;;;11.09;55.80;97694.84;5042604;28;20590;-65
2021/05/06 09:33:34;;;;;;;1999.90;999.90;;;;;;;11.27;57.12;97693.50;5036113;28;20141;-65
2021/05/06 09:36:15;;;;;;;1999.90;999.90;;;;;;;12.11;56.01;97682.97;5041154;28;20044;-66
2021/05/06 09:38:49;;;;;;;1999.90;999.90;;;;;;;12.22;55.05;97689.66;5037659;28;20057;-64
2021/05/06 09:41:23;;;;;;;1999.90;999.90;;;;;;;12.20;55.47;97678.09;5040148;28;20049;-65
2021/05/06 09:43:50;;;;;;;1999.90;999.90;;;;;;;12.51;54.61;97676.56;5044746;28;20057;-66
2021/05/06 09:46:43;;;;;;;1999.90;999.90;;;;;;;12.74;54.14;97689.84;5039509;28;20663;-65
2021/05/06 09:49:17;;;;;;;1999.90;999.90;;;;;;;12.26;54.04;97693.31;5041541;28;20048;-64
2021/05/06 09:52:00;;;;;;;1999.90;999.90;;;;;;;12.07;54.98;97695.91;5043506;28;20361;-65
2021/05/06 09:54:31;;;;;;;1999.90;999.90;;;;;;;11.93;56.67;97701.84;5030903;28;20049;-65
2021/05/06 09:57:04;;;;;;;1999.90;999.90;;;;;;;12.12;55.59;97696.47;5035575;28;20500;-66
2021/05/06 09:59:34;;;;;;;1999.90;999.90;;;;;;;11.69;56.32;97699.94;5043108;28;20131;-65
2021/05/06 10:02:14;;;;;;;1999.90;999.90;;;;;;;12.05;56.31;97699.03;5041617;28;20499;-66
2021/05/06 10:04:44;;;;;;;1999.90;999.90;;;;;;;12.69;54.38;97702.00;5040977;28;20048;-66
2021/05/06 10:07:25;;;;;;;1999.90;999.90;;;;;;;13.43;52.62;97695.13;5044237;28;20496;-66
2021/05/06 10:10:07;;;;;;;1999.90;999.90;;;;;;;12.44;54.23;97696.56;5038991;28;20049;-66
2021/05/06 10:12:36;;;;;;;1999.90;999.90;;;;;;;12.68;53.83;97695.66;5044663;28;20049;-66
2021/05/06 10:15:05;;;;;;;1999.90;999.90;;;;;;;12.20;54.57;97686.41;5034710;28;20049;-65
2021/05/06 10:17:32;;;;;;;1999.90;999.90;;;;;;;12.49;54.80;97690.00;5033899;28;20057;-67
2021/05/06 10:19:59;;;;;;;1999.90;999.90;;;;;;;13.05;55.74;97689.03;5039315;28;20056;-65
2021/05/06 10:22:28;;;;;;;1999.90;999.90;;;;;;;12.34;55.01;97691.53;5037261;28;20130;-64
2021/05/06 10:24:56;;;;;;;1999.90;999.90;;;;;;;12.47;56.14;97684.78;5045130;28;20186;-65
2021/05/06 10:27:25;;;;;;;1999.90;999.90;;;;;;;12.95;56.96;97678.47;5042517;28;20063;-65
2021/05/06 10:29:59;;;;;;;1999.90;999.90;;;;;;;12.72;53.78;97673.56;5034587;28;20111;-65
2021/05/06 10:32:30;;;;;;;1999.90;999.90;;;;;;;13.44;53.22;97671.75;5037465;28;20126;-65
2021/05/06 10:35:02;;;;;;;1999.90;999.90;;;;;;;13.20;54.59;97659.69;5040179;28;20057;-65
2021/05/06 10:37:31;;;;;;;1999.90;999.90;;;;;;;13.27;54.19;97654.28;5027729;28;20061;-66
2021/05/06 10:39:58;;;;;;;1999.90;999.90;;;;;;;13.19;54.52;97656.09;5045903;28;20083;-66
2021/05/06 10:42:31;;;;;;;1999.90;999.90;;;;;;;13.21;53.62;97658.50;5050624;28;20327;-66
2021/05/06 10:44:59;;;;;;;1999.90;999.90;;;;;;;12.41;53.95;97661.25;5039002;28;20049;-66
2021/05/06 10:47:46;;;;;;;1999.90;999.90;;;;;;;11.93;53.90;97663.88;5041077;28;20061;-65
2021/05/06 10:50:14;;;;;;;1999.90;999.90;;;;;;;11.55;54.76;97659.56;5039478;28;20053;-65
2021/05/06 10:52:46;;;;;;;1999.90;999.90;;;;;;;11.41;52.87;97670.19;5040342;28;20083;-65
2021/05/06 10:55:14;;;;;;;1999.90;999.90;;;;;;;11.76;53.25;97661.34;5041274;28;20053;-66
2021/05/06 10:57:41;;;;;;;1999.90;999.90;;;;;;;12.36;52.32;97669.81;5045159;28;20065;-66
2021/05/06 11:00:27;;;;;;;1999.90;999.90;;;;;;;12.45;53.36;97672.44;5045070;28;20048;-65
2021/05/06 11:02:59;;;;;;;1999.90;999.90;;;;;;;11.95;52.53;97666.28;5040617;28;20771;-65
2021/05/06 11:05:28;;;;;;;1999.90;999.90;;;;;;;11.36;54.55;97678.72;5037423;28;20057;-65
2021/05/06 11:08:08;;;;;;;1999.90;999.90;;;;;;;11.16;55.42;97684.03;5039240;28;20057;-65
2021/05/06 11:10:45;;;;;;;1999.90;999.90;;;;;;;11.24;56.94;97683.13;5035336;28;20049;-66
2021/05/06 11:13:11;;;;;;;1999.90;999.90;;;;;;;11.48;57.68;97681.50;5034160;28;20095;-63
2021/05/06 11:15:39;;;;;;;1999.90;999.90;;;;;;;11.43;57.81;97678.94;5042967;28;20502;-66
2021/05/06 11:18:07;;;;;;;1999.90;999.90;;;;;;;12.20;56.69;97667.00;5042806;28;20134;-66
2021/05/06 11:20:40;;;;;;;1999.90;999.90;;;;;;;12.18;56.92;97665.75;5033829;28;20049;-64
2021/05/06 11:23:25;;;;;;;1999.90;999.90;;;;;;;11.68;58.02;97673.38;5040959;28;20049;-65
2021/05/06 11:26:00;;;;;;;1999.90;999.90;;;;;;;11.92;56.47;97678.03;5040783;28;20412;-64
2021/05/06 11:28:29;;;;;;;1999.90;999.90;;;;;;;12.18;55.88;97663.78;5032726;28;20068;-64
2021/05/06 11:30:59;;;;;;;1999.90;999.90;;;;;;;12.39;55.38;97673.88;5043611;28;20057;-65
2021/05/06 11:33:29;;;;;;;1999.90;999.90;;;;;;;12.46;53.36;97649.09;5039238;28;20115;-64
2021/05/06 11:36:09;;;;;;;1999.90;999.90;;;;;;;12.54;53.61;97658.41;5037793;28;20064;-63
2021/05/06 11:38:42;;;;;;;1999.90;999.90;;;;;;;11.75;53.84;97655.00;5035230;28;20053;-65
2021/05/06 11:41:09;;;;;;;1999.90;999.90;;;;;;;11.30;56.14;97649.66;5044027;28;20057;-64
2021/05/06 11:43:56;;;;;;;1999.90;999.90;;;;;;;11.67;57.86;97657.91;5040824;28;20458;-64
2021/05/06 11:46:30;;;;;;;1999.90;999.90;;;;;;;12.19;58.82;97645.19;5041406;28;20381;-64
2021/05/06 11:48:58;;;;;;;1999.90;999.90;;;;;;;11.42;58.84;97655.22;5044726;28;20165;-64
2021/05/06 11:51:44;;;;;;;1999.90;999.90;;;;;;;11.71;65.84;97651.31;5046615;28;20075;-65
2021/05/06 11:54:22;;;;;;;1999.90;999.90;;;;;;;11.97;64.91;97661.22;5034249;28;20053;-65
2021/05/06 11:56:48;;;;;;;1999.90;999.90;;;;;;;11.37;64.19;97653.47;5043565;28;20068;-64
2021/05/06 11:59:17;;;;;;;1999.90;999.90;;;;;;;11.12;61.37;97652.69;5044844;28;20045;-64
2021/05/06 12:01:45;;;;;;;1999.90;999.90;;;;;;;11.44;63.60;97642.59;5045535;28;20820;-65
2021/05/06 12:04:41;;;;;;;1999.90;999.90;;;;;;;11.43;61.57;97656.81;5039310;28;20754;-65
2021/05/06 12:07:11;;;;;;;1999.90;999.90;;;;;;;11.62;60.78;97650.66;5030749;28;20469;-65
2021/05/06 12:09:37;;;;;;;1999.90;999.90;;;;;;;11.63;60.42;97638.44;5044857;28;20052;-64
2021/05/06 12:12:04;;;;;;;1999.90;999.90;;;;;;;12.19;58.61;97623.00;5038363;28;20053;-65
2021/05/06 12:14:36;;;;;;;1999.90;999.90;;;;;;;12.67;56.39;97616.38;5047149;28;20044;-64
2021/05/06 12:17:07;;;;;;;1999.90;999.90;;;;;;;13.63;57.48;97619.03;5027338;28;20179;-65
2021/05/06 12:19:43;;;;;;;1999.90;999.90;;;;;;;13.83;54.09;97605.16;5043101;28;20045;-65
2021/05/06 12:22:09;;;;;;;1999.90;999.90;;;;;;;14.13;53.21;97601.75;5045060;28;20048;-66
2021/05/06 12:24:38;;;;;;;1999.90;999.90;;;;;;;13.91;53.80;97595.78;5041873;28;20088;-66
2021/05/06 12:27:19;;;;;;;1999.90;999.90;;;;;;;14.06;52.52;97603.25;5045460;28;20408;-65
2021/05/06 12:29:46;;;;;;;1999.90;999.90;;;;;;;13.46;53.91;97595.25;5035063;28;20574;-65
2021/05/06 12:32:21;;;;;;;1999.90;999.90;;;;;;;13.60;53.00;97591.97;5040552;28;20406;-66
2021/05/06 12:34:49;;;;;;;1999.90;999.90;;;;;;;13.19;53.98;97594.25;5015371;28;20052;-65
2021/05/06 12:37:16;;;;;;;1999.90;999.90;;;;;;;13.42;53.60;97582.47;5038741;28;20053;-65
2021/05/06 12:39:45;;;;;;;1999.90;999.90;;;;;;;13.52;53.90;97581.91;5036728;28;20045;-66
2021/05/06 12:42:11;;;;;;;1999.90;999.90;;;;;;;13.31;53.35;97583.00;5045815;28;20562;-65
2021/05/06 12:44:49;;;;;;;1999.90;999.90;;;;;;;13.24;53.88;97580.06;5037843;28;20057;-65
2021/05/06 12:47:25;;;;;;;1999.90;999.90;;;;;;;12.83;54.30;97583.09;5043014;28;20088;-66
2021/05/06 12:50:11;;;;;;;1999.90;999.90;;;;;;;12.41;55.30;97577.28;5045781;28;20053;-65
2021/05/06 12:52:50;;;;;;;1999.90;999.90;;;;;;;12.28;55.94;97579.31;5041017;28;20049;-65
2021/05/06 12:55:25;;;;;;;1999.90;999.90;;;;;;;12.10;56.75;97581.59;5018692;28;20492;-65
2021/05/06 12:58:03;;;;;;;1999.90;999.90;;;;;;;11.86;56.86;97568.66;5029122;28;20449;-64
2021/05/06 13:00:32;;;;;;;1999.90;999.90;;;;;;;11.84;57.41;97568.22;5042413;28;20123;-64
2021/05/06 13:03:10;;;;;;;1999.90;999.90;;;;;;;12.06;56.54;97562.13;5034710;28;20049;-64
2021/05/06 13:05:48;;;;;;;1999.90;999.90;;;;;;;11.94;57.34;97570.50;5042967;28;20059;-65
2021/05/06 13:08:14;;;;;;;1999.90;999.90;;;;;;;12.06;58.14;97577.91;5039794;28;20045;-65
2021/05/06 13:10:45;;;;;;;1999.90;999.90;;;;;;;11.83;59.88;97575.69;5029527;28;20060;-64
2021/05/06 13:13:32;;;;;;;1999.90;999.90;;;;;;;11.86;58.91;97574.19;5042655;28;20056;-65
2021/05/06 13:15:58;;;;;;;1999.90;999.90;;;;;;;11.77;59.21;97574.34;5039885;28;20064;-64
2021/05/06 13:18:24;;;;;;;1999.90;999.90;;;;;;;12.20;57.88;97569.22;5031675;28;20394;-64
2021/05/06 13:20:51;;;;;;;1999.90;999.90;;;;;;;12.93;56.68;97570.63;5043539;28;20049;-64
2021/05/06 13:23:23;;;;;;;1999.90;999.90;;;;;;;13.39;55.64;97565.34;5044904;28;20330;-65
2021/05/06 13:25:52;;;;;;;1999.90;999.90;;;;;;;14.47;54.58;97566.66;5044759;28;20052;-65
2021/05/06 13:28:33;;;;;;;1999.90;999.90;;;;;;;14.44;52.59;97554.31;5043130;28;20597;-66
2021/05/06 13:31:18;;;;;;;1999.90;999.90;;;;;;;14.25;52.00;97557.13;5041748;28;20049;-66
2021/05/06 13:33:47;;;;;;;1999.90;999.90;;;;;;;13.78;53.26;97549.88;5046717;28;20479;-66
2021/05/06 13:36:15;;;;;;;1999.90;999.90;;;;;;;13.94;53.55;97550.59;5037350;28;20053;-65
2021/05/06 13:38:58;;;;;;;1999.90;999.90;;;;;;;14.36;52.27;97549.78;5039613;28;20053;-66
2021/05/06 13:41:27;;;;;;;1999.90;999.90;;;;;;;14.22;51.73;97546.75;5044272;28;20786;-66
2021/05/06 13:43:55;;;;;;;1999.90;999.90;;;;;;;13.85;52.80;97542.47;5044246;28;20068;-65
2021/05/06 13:46:23;;;;;;;1999.90;999.90;;;;;;;14.29;52.41;97541.34;5039364;28;20052;-65
2021/05/06 13:48:51;;;;;;;1999.90;999.90;;;;;;;14.49;52.20;97542.06;5039925;28;20464;-66
2021/05/06 13:51:18;;;;;;;1999.90;999.90;;;;;;;13.50;53.79;97537.84;5040824;28;20075;-65
2021/05/06 13:53:46;;;;;;;1999.90;999.90;;;;;;;13.45;55.30;97535.31;5040321;28;20567;-65
2021/05/06 13:56:12;;;;;;;1999.90;999.90;;;;;;;13.02;54.83;97531.59;5042991;28;20444;-66
2021/05/06 13:58:40;;;;;;;1999.90;999.90;;;;;;;12.88;54.75;97529.28;5040371;28;20060;-66
2021/05/06 14:01:09;;;;;;;1999.90;999.90;;;;;;;13.59;53.21;97518.19;5042806;28;20061;-65
2021/05/06 14:03:35;;;;;;;1999.90;999.90;;;;;;;13.64;54.21;97523.44;5042683;28;20496;-64
2021/05/06 14:06:03;;;;;;;1999.90;999.90;;;;;;;13.75;51.85;97512.50;5040506;28;20189;-65
2021/05/06 14:08:30;;;;;;;1999.90;999.90;;;;;;;13.85;52.88;97513.91;5041985;28;20401;-65
2021/05/06 14:10:57;;;;;;;1999.90;999.90;;;;;;;13.87;51.81;97517.09;5041602;28;20060;-65
2021/05/06 14:13:23;;;;;;;1999.90;999.90;;;;;;;14.20;52.82;97512.94;5042076;28;20056;-65
2021/05/06 14:15:51;;;;;;;1999.90;999.90;;;;;;;13.49;52.64;97524.31;5041951;28;20110;-65
2021/05/06 14:18:17;;;;;;;1999.90;999.90;;;;;;;12.89;52.15;97505.13;5040874;28;20049;-65
2021/05/06 14:20:44;;;;;;;1999.90;999.90;;;;;;;13.08;51.78;97504.38;5032283;28;20057;-66
2021/05/06 14:23:11;;;;;;;1999.90;999.90;;;;;;;13.28;51.17;97510.72;5041957;28;20056;-65
2021/05/06 14:25:38;;;;;;;1999.90;999.90;;;;;;;13.06;51.77;97496.41;5046720;28;20138;-65
2021/05/06 14:28:05;;;;;;;1999.90;999.90;;;;;;;12.86;52.50;97499.13;5040654;28;20053;-65
2021/05/06 14:30:33;;;;;;;1999.90;999.90;;;;;;;13.20;52.55;97485.63;5038923;28;20053;-65
2021/05/06 14:33:00;;;;;;;1999.90;999.90;;;;;;;13.84;51.75;97496.41;5041986;28;20064;-65
2021/05/06 14:35:26;;;;;;;1999.90;999.90;;;;;;;13.14;51.39;97489.03;5038585;28;20185;-65
2021/05/06 14:37:54;;;;;;;1999.90;999.90;;;;;;;13.08;51.62;97493.25;5040404;28;20049;-65